Terminal Aerodrome Forecast
Issued by NWS Springfield, MO

Home | Current Version | Previous Version | Text Only | Print | Product List | Glossary On
Versions: 1 2 3 4 5 6 7 8 9 10 11 12 13 14 15 16 17
000
FTUS43 KSGF 231506 AAB
TAFSGF
TAF AMD
KSGF 231506Z 2315/2412 35012KT P6SM SCT025 OVC050
     FM231900 32012KT P6SM VCSH OVC045
     FM240000 32010KT P6SM BKN150
     FM240800 31006KT P6SM BKN030=

USA.gov is the U.S. government's official web portal to all federal, state and local government web resources and services.